Weather reports worldwide

Advertisment
Kew Gardens, United Kingdom (99095): temperature & dewpoint: 11.08.2018 13:00:00 - 17.08.2018 13:00:00 (BST)Kew Gardens, United Kingdom (99095): temperature -20cm & temperature -100cm: 11.08.2018 13:00:00 - 17.08.2018 13:00:00 (BST)Kew Gardens, United Kingdom (99095): wind speed: 11.08.2018 13:00:00 - 17.08.2018 13:00:00 (BST)Kew Gardens, United Kingdom (99095): wind direction: 11.08.2018 13:00:00 - 17.08.2018 13:00:00 (BST)Kew Gardens, United Kingdom (99095): precipitation: 11.08.2018 13:00:00 - 17.08.2018 13:00:00 (BST)
Date & Time tt [°C] td [°C] tt -20cm [°C] tt -100cm [°C] ff [km/h] ff [kn] dd rr [mm]
17.08.2018 13:00:00 19,9 9,5 - - 8 4 WSW 0,0
17.08.2018 12:00:00 19,6 9,2 - - 9 5 WSW 0,0
17.08.2018 11:00:00 19,8 10,6 - - 8 4 W 0,0
17.08.2018 10:00:00 17,7 12,1 18,0 19,4 5 3 WSW 0,0
17.08.2018 09:00:00 15,3 12,5 - - 4 2 WSW 0,0
17.08.2018 08:00:00 12,2 11,9 - - 2 1 SSW 0,0
17.08.2018 07:00:00 9,9 9,8 - - 4 2 S 0,0
17.08.2018 06:00:00 9,1 8,8 - - 4 2 SSW 0,0
17.08.2018 05:00:00 9,6 9,3 - - 4 2 S 0,0
17.08.2018 04:00:00 9,9 9,4 - - 2 1 S 0,0
17.08.2018 03:00:00 10,5 9,9 - - 2 1 SSW 0,0
17.08.2018 02:00:00 11,3 10,2 - - 4 2 W 0,0
17.08.2018 01:00:00 12,9 10,1 - - 5 3 W 0,0
17.08.2018 00:00:00 15,0 10,2 - - 9 5 WNW 0,0
16.08.2018 23:00:00 15,8 10,2 - - 9 5 W 0,0
16.08.2018 22:00:00 15,2 13,7 - - 5 3 W 0,0
16.08.2018 21:00:00 15,7 13,6 - - 5 3 SW 0,0
16.08.2018 20:00:00 18,0 13,1 - - 8 4 SW 0,0
16.08.2018 19:00:00 19,2 13,8 - - 8 4 SW 0,0
16.08.2018 18:00:00 18,3 14,0 - - 8 4 SSW 0,0
16.08.2018 17:00:00 17,9 14,1 - - 8 4 S 0,0
16.08.2018 16:00:00 16,8 14,4 - - 8 4 S 0,0
16.08.2018 15:00:00 15,6 14,0 - - 5 3 SSW 0,0
16.08.2018 14:00:00 14,5 13,5 - - 5 3 WSW 1,8
16.08.2018 13:00:00 14,6 12,9 - - 8 4 W 3,0
16.08.2018 12:00:00 16,8 16,0 - - 8 4 W 3,4
16.08.2018 11:00:00 16,4 15,4 - - 5 3 WNW 6,4
16.08.2018 10:00:00 17,7 16,9 19,7 19,4 9 5 SSW 1,6
16.08.2018 09:00:00 18,8 15,6 - - 11 6 SW 0,0
16.08.2018 08:00:00 18,6 15,3 - - 11 6 SW 0,0
16.08.2018 07:00:00 18,4 15,4 - - 11 6 SW 0,0
16.08.2018 06:00:00 18,0 15,4 - - 9 5 S 0,0
16.08.2018 05:00:00 18,3 14,8 - - 9 5 SW 0,0
16.08.2018 04:00:00 18,5 14,6 - - 11 6 WSW 0,0
16.08.2018 03:00:00 18,8 14,6 - - 15 8 SW 0,0
16.08.2018 02:00:00 17,9 15,3 - - 9 5 SSW 0,0
16.08.2018 01:00:00 17,9 15,0 - - 8 4 SSW 0,0
16.08.2018 00:00:00 18,0 14,7 - - 9 5 SW 0,0
15.08.2018 23:00:00 18,3 14,2 - - 11 6 SW 0,0
15.08.2018 22:00:00 19,0 14,4 - - 9 5 SSW 0,0
15.08.2018 21:00:00 19,7 14,5 - - 9 5 SW 0,0
15.08.2018 20:00:00 20,2 14,7 - - 9 5 SSW 0,0
15.08.2018 19:00:00 21,1 14,5 - - 11 6 SW 0,0
15.08.2018 18:00:00 21,8 14,3 - - 15 8 SW 0,0
15.08.2018 17:00:00 23,7 15,0 - - 13 7 SW 0,0
15.08.2018 16:00:00 23,8 14,3 - - 13 7 SW 0,0
15.08.2018 15:00:00 23,9 15,2 - - 13 7 WSW 0,0
15.08.2018 14:00:00 23,4 15,2 - - 9 5 SW 0,0
15.08.2018 13:00:00 22,3 14,6 - - 9 5 WSW 0,0
15.08.2018 12:00:00 21,5 14,5 - - 11 6 W 0,0
15.08.2018 11:00:00 21,4 14,8 - - 9 5 SW 0,0
15.08.2018 10:00:00 20,4 14,8 19,2 19,5 9 5 WSW 0,0
15.08.2018 09:00:00 18,8 13,9 - - 5 3 SW 0,0
15.08.2018 08:00:00 18,1 13,5 - - 5 3 W 0,0
15.08.2018 07:00:00 17,7 13,4 - - 8 4 W 0,0
15.08.2018 06:00:00 17,3 13,8 - - 9 5 WSW 0,0
15.08.2018 05:00:00 16,1 13,8 - - 4 2 SW 0,0
15.08.2018 04:00:00 14,8 13,2 - - 4 2 WSW 0,0
15.08.2018 03:00:00 15,0 12,6 - - 5 3 WSW 0,0
15.08.2018 02:00:00 15,7 12,4 - - 4 2 WSW 0,0
15.08.2018 01:00:00 16,4 12,3 - - 8 4 WSW 0,0
15.08.2018 00:00:00 17,3 12,6 - - 5 3 WSW 0,0
14.08.2018 23:00:00 18,4 12,6 - - 9 5 W 0,0
14.08.2018 22:00:00 19,5 12,9 - - 9 5 W 0,0
14.08.2018 21:00:00 21,0 14,0 - - 13 7 W 0,0
14.08.2018 20:00:00 22,6 13,8 - - 11 6 W 0,0
14.08.2018 19:00:00 23,2 14,3 - - 11 6 W 0,0
14.08.2018 18:00:00 24,2 13,6 - - 11 6 W 0,0
14.08.2018 17:00:00 24,4 14,0 - - 8 4 W 0,0
14.08.2018 16:00:00 24,2 12,5 - - 13 7 W 0,0
14.08.2018 15:00:00 24,4 12,4 - - 9 5 W 0,0
14.08.2018 14:00:00 23,4 11,5 - - 13 7 WNW 0,0
14.08.2018 13:00:00 21,9 11,5 - - 13 7 WNW 0,0
14.08.2018 12:00:00 21,2 11,7 - - 11 6 WNW 0,0
14.08.2018 11:00:00 19,8 13,3 - - 9 5 W 0,0
14.08.2018 10:00:00 18,2 13,4 19,0 19,5 5 3 W 0,0
14.08.2018 09:00:00 17,2 13,5 - - 5 3 W 0,0
14.08.2018 08:00:00 15,5 12,9 - - 9 5 W 0,0
14.08.2018 07:00:00 13,8 13,3 - - 2 1 W 0,0
14.08.2018 06:00:00 13,1 12,7 - - 5 3 W 0,0
14.08.2018 05:00:00 12,5 11,9 - - 5 3 W 0,0
14.08.2018 04:00:00 12,8 11,9 - - 4 2 WSW 0,0
14.08.2018 03:00:00 13,5 12,1 - - 2 1 SW 0,0
14.08.2018 02:00:00 14,6 12,6 - - 5 3 WNW 0,0
14.08.2018 01:00:00 15,9 12,2 - - 4 2 WNW 0,0
14.08.2018 00:00:00 18,0 13,0 - - 11 6 WNW 0,0
13.08.2018 23:00:00 18,9 13,5 - - 8 4 WNW 0,0
13.08.2018 22:00:00 20,0 14,4 - - 11 6 NW 0,0
13.08.2018 21:00:00 21,1 14,1 - - 11 6 NW 0,0
13.08.2018 20:00:00 22,6 13,0 - - 11 6 NW 0,0
13.08.2018 19:00:00 23,7 12,8 - - 9 5 W 0,0
13.08.2018 18:00:00 24,0 12,6 - - 11 6 NW 0,0
13.08.2018 17:00:00 22,9 13,0 - - 13 7 NW 0,0
13.08.2018 16:00:00 23,2 13,4 - - 11 6 NW 0,0
13.08.2018 15:00:00 22,1 13,8 - - 11 6 NW 0,0
13.08.2018 14:00:00 21,9 14,9 - - 11 6 NW 0,0
13.08.2018 13:00:00 22,0 14,6 - - 11 6 WNW 0,0
13.08.2018 12:00:00 19,5 15,6 - - 15 8 WNW 0,0
13.08.2018 11:00:00 20,2 15,8 - - 9 5 W 0,0
13.08.2018 10:00:00 18,1 15,8 19,2 19,7 8 4 W 0,0
13.08.2018 09:00:00 17,3 15,4 - - 5 3 WSW 0,0
13.08.2018 08:00:00 16,4 15,4 - - 5 3 SW 0,0
13.08.2018 07:00:00 15,7 15,1 - - 2 1 SW 0,0
13.08.2018 06:00:00 15,6 15,1 - - 4 2 WSW 0,0
13.08.2018 05:00:00 15,4 15,0 - - 2 1 SSW 0,0
13.08.2018 04:00:00 15,7 15,3 - - 4 2 SW 0,0
13.08.2018 03:00:00 15,7 15,3 - - 0 0 N 0,0
13.08.2018 02:00:00 15,8 15,3 - - 0 0 N 0,0
13.08.2018 01:00:00 15,6 14,8 - - 2 1 SSW 0,0
13.08.2018 00:00:00 16,0 14,7 - - 2 1 SSW 0,4
12.08.2018 23:00:00 16,2 14,5 - - 4 2 SSW 0,2
12.08.2018 22:00:00 16,7 14,2 - - 5 3 S 0,0
12.08.2018 21:00:00 17,7 13,2 - - 5 3 S 0,0
12.08.2018 20:00:00 18,9 12,8 - - 5 3 SSW 0,0
12.08.2018 19:00:00 19,2 12,7 - - 9 5 SSW 0,0
12.08.2018 18:00:00 19,5 13,9 - - 5 3 SSW 0,0
12.08.2018 17:00:00 19,4 13,2 - - 5 3 SSW 0,0
12.08.2018 16:00:00 18,2 14,7 - - 9 5 S 0,0
12.08.2018 15:00:00 18,5 12,9 - - 13 7 SW 0,0
12.08.2018 14:00:00 19,3 14,1 - - 11 6 SW 0,2
12.08.2018 13:00:00 19,0 14,0 - - 11 6 SSW 0,0
12.08.2018 12:00:00 21,6 11,3 - - 16 9 SSW 0,0
12.08.2018 11:00:00 21,0 12,0 - - 11 6 S 0,0
12.08.2018 10:00:00 20,1 14,8 19,2 19,7 9 5 SSW 0,2
12.08.2018 09:00:00 18,8 14,6 - - 8 4 SSW 0,0
12.08.2018 08:00:00 18,1 15,7 - - 5 3 SSW 0,0
12.08.2018 07:00:00 17,1 15,8 - - 8 4 S 0,0
12.08.2018 06:00:00 16,4 15,0 - - 2 1 S 0,0
12.08.2018 05:00:00 16,6 15,2 - - 8 4 SSE 0,0
12.08.2018 04:00:00 15,7 14,5 - - 4 2 S 0,0
12.08.2018 03:00:00 16,3 15,0 - - 5 3 S 0,0
12.08.2018 02:00:00 16,5 15,0 - - 4 2 S 0,0
12.08.2018 01:00:00 16,3 15,1 - - 5 3 S 0,0
12.08.2018 00:00:00 16,1 14,9 - - 5 3 S 0,2
11.08.2018 23:00:00 16,3 15,3 - - 5 3 S 0,0
11.08.2018 22:00:00 16,2 15,2 - - 5 3 SE 0,0
11.08.2018 21:00:00 16,6 15,7 - - 5 3 S 0,0
11.08.2018 20:00:00 16,7 15,7 - - 5 3 SW 0,8
11.08.2018 19:00:00 17,8 14,5 - - 8 4 S 0,0
11.08.2018 18:00:00 19,0 13,8 - - 8 4 SSW 0,0
11.08.2018 17:00:00 19,8 12,9 - - 11 6 SSW 0,0
11.08.2018 16:00:00 20,4 11,7 - - 11 6 SSW 0,0
11.08.2018 15:00:00 19,8 8,6 - - 11 6 SSW 0,0
11.08.2018 14:00:00 21,0 8,3 - - 8 4 SW 0,0
11.08.2018 13:00:00 21,2 6,6 - - 11 6 S 0,0

tt = temperature
td = dewpoint
tt -20cm = temperature -20cm
tt -100cm = temperature -100cm
ff = wind speed
dd = wind direction
rr = precipitation

Next stations